メインページ
METAR-TAF:

METAR-TAF

空港 :

ハリファックス, ノバスコシア州, カナダ

ハリファックス・ロバート・L・スタンフィールド国際空港

緯度: 44-53N, 経度: 063-30W, 海抜: 145m

現時点の気象観測

当レポートは38分前の14:00(UTC)に作成
北西の風 13kt
気温 -2°C
湿度 63%
気圧 1014 hPa
視程: 24.1km
高度3000ftの雲はほとんどない

METAR: CYHZ 211400Z 32013KT 15SM FEW030 M02/M08 A2993 RMK CU1 SLP142

時間: 10:38 (14:38 UTC)

予報

当レポートは3時間0分前の11:38(UTC)に作成
予報は21日の 12時(UTC)から 22日の 12時(UTC)まで有効
北西の風 12kt、最大22ktの突風を伴う
視程: 10km
高度3000ftの雲は散在している
21日の 12時(UTC)から 21日の 16時(UTC)まで一時的に
高度3000ftの千切れ雲あり
21日の 1600時(UTC)から
西/北西の風 12kt、最大22ktの突風を伴う
視程: 10km
高度3000ftの雲はほとんどない
22日の 03時(UTC)から 22日の 05時(UTC)まで徐々に
西/北西の風 6kt
22日の 1000時(UTC)から
の風 8kt
視程: 10km
高度4000ftの雲は散在している
高度10000ftの千切れ雲あり

TAF: CYHZ 211138Z 2112/2212 31012G22KT P6SM SCT030 TEMPO 2112/2116 BKN030 FM211600 30012G22KT P6SM FEW030 BECMG 2203/2205 30006KT FM221000 36008KT P6SM SCT040 BKN100 RMK NXT FCST BY 211500Z

4,000以上の空港の気象観測と天気予報(METAR報とTAF報)

利用可能な観測所は地図上に黄色い丸と赤い丸で示す。

丸の上にカーソルを重ねると観測所名を参照できる。

次にクリックすると気象観測と天気予報を参照できる。

マップの切り替え:黒色「×」印の緑ボタンをクリックして拡大、「-」印の緑ボタンをクリックして縮小、緑色の三角印をクリックして隣りの地図に切り替え


METAR-TAF: